sensor_id;sensor_type;location;lat;lon;timestamp;P1;durP1;ratioP1;P2;durP2;ratioP2
12846;SDS011;6492;48.128;8.320;2023-02-16T00:01:29;7.60;;;5.20;;
12846;SDS011;6492;48.128;8.320;2023-02-16T00:05:39;9.90;;;6.03;;
12846;SDS011;6492;48.128;8.320;2023-02-16T00:09:41;8.27;;;5.90;;
12846;SDS011;6492;48.128;8.320;2023-02-16T00:13:42;8.77;;;5.83;;
12846;SDS011;6492;48.128;8.320;2023-02-16T00:17:43;12.90;;;7.07;;
12846;SDS011;6492;48.128;8.320;2023-02-16T00:21:46;11.23;;;7.43;;
12846;SDS011;6492;48.128;8.320;2023-02-16T00:25:49;12.63;;;7.50;;
12846;SDS011;6492;48.128;8.320;2023-02-16T00:29:52;11.53;;;7.17;;
12846;SDS011;6492;48.128;8.320;2023-02-16T00:33:54;11.33;;;7.53;;
12846;SDS011;6492;48.128;8.320;2023-02-16T00:37:57;12.10;;;6.77;;
12846;SDS011;6492;48.128;8.320;2023-02-16T00:42:00;17.57;;;8.27;;
12846;SDS011;6492;48.128;8.320;2023-02-16T00:46:04;13.73;;;7.63;;
12846;SDS011;6492;48.128;8.320;2023-02-16T00:50:09;13.57;;;7.53;;
12846;SDS011;6492;48.128;8.320;2023-02-16T00:54:17;12.70;;;8.00;;
12846;SDS011;6492;48.128;8.320;2023-02-16T00:58:20;13.27;;;7.50;;
12846;SDS011;6492;48.128;8.320;2023-02-16T01:02:24;12.40;;;7.63;;
12846;SDS011;6492;48.128;8.320;2023-02-16T01:06:26;13.03;;;6.90;;
12846;SDS011;6492;48.128;8.320;2023-02-16T01:10:47;10.67;;;6.57;;
12846;SDS011;6492;48.128;8.320;2023-02-16T01:15:08;10.87;;;6.27;;
12846;SDS011;6492;48.128;8.320;2023-02-16T01:19:13;10.77;;;5.63;;
12846;SDS011;6492;48.128;8.320;2023-02-16T01:23:15;12.03;;;6.30;;
12846;SDS011;6492;48.128;8.320;2023-02-16T01:27:18;11.20;;;5.90;;
12846;SDS011;6492;48.128;8.320;2023-02-16T01:31:19;14.67;;;6.20;;
12846;SDS011;6492;48.128;8.320;2023-02-16T01:35:22;11.17;;;5.87;;
12846;SDS011;6492;48.128;8.320;2023-02-16T01:39:28;9.90;;;6.67;;
12846;SDS011;6492;48.128;8.320;2023-02-16T01:43:33;10.57;;;5.57;;
12846;SDS011;6492;48.128;8.320;2023-02-16T01:47:44;9.67;;;5.17;;
12846;SDS011;6492;48.128;8.320;2023-02-16T01:51:52;9.10;;;5.37;;
12846;SDS011;6492;48.128;8.320;2023-02-16T01:55:59;9.93;;;5.43;;
12846;SDS011;6492;48.128;8.320;2023-02-16T02:00:11;8.90;;;5.37;;
12846;SDS011;6492;48.128;8.320;2023-02-16T02:04:23;8.23;;;5.43;;
12846;SDS011;6492;48.128;8.320;2023-02-16T02:08:46;6.87;;;4.80;;
12846;SDS011;6492;48.128;8.320;2023-02-16T02:12:52;8.07;;;5.10;;
12846;SDS011;6492;48.128;8.320;2023-02-16T02:17:01;6.87;;;5.00;;
12846;SDS011;6492;48.128;8.320;2023-02-16T02:21:08;8.97;;;5.13;;
12846;SDS011;6492;48.128;8.320;2023-02-16T02:25:46;10.03;;;5.33;;
12846;SDS011;6492;48.128;8.320;2023-02-16T02:30:12;8.17;;;5.00;;
12846;SDS011;6492;48.128;8.320;2023-02-16T02:34:25;8.53;;;5.57;;
12846;SDS011;6492;48.128;8.320;2023-02-16T02:38:37;7.97;;;4.77;;
12846;SDS011;6492;48.128;8.320;2023-02-16T02:42:50;7.83;;;4.60;;
12846;SDS011;6492;48.128;8.320;2023-02-16T02:47:01;7.40;;;4.70;;
12846;SDS011;6492;48.128;8.320;2023-02-16T02:51:07;7.33;;;4.80;;
12846;SDS011;6492;48.128;8.320;2023-02-16T02:55:29;7.37;;;4.30;;
12846;SDS011;6492;48.128;8.320;2023-02-16T02:59:54;7.93;;;4.70;;
12846;SDS011;6492;48.128;8.320;2023-02-16T03:04:21;9.23;;;5.03;;
12846;SDS011;6492;48.128;8.320;2023-02-16T03:08:26;10.13;;;4.93;;
12846;SDS011;6492;48.128;8.320;2023-02-16T03:12:31;7.50;;;4.90;;
12846;SDS011;6492;48.128;8.320;2023-02-16T03:16:44;10.00;;;5.60;;
12846;SDS011;6492;48.128;8.320;2023-02-16T03:20:50;9.17;;;4.97;;
12846;SDS011;6492;48.128;8.320;2023-02-16T03:25:10;9.77;;;5.70;;
12846;SDS011;6492;48.128;8.320;2023-02-16T03:29:30;8.60;;;5.53;;
12846;SDS011;6492;48.128;8.320;2023-02-16T03:33:33;7.20;;;5.00;;
12846;SDS011;6492;48.128;8.320;2023-02-16T03:37:37;7.63;;;4.90;;
12846;SDS011;6492;48.128;8.320;2023-02-16T03:41:41;8.33;;;4.83;;
12846;SDS011;6492;48.128;8.320;2023-02-16T03:45:49;7.50;;;4.43;;
12846;SDS011;6492;48.128;8.320;2023-02-16T03:49:51;7.20;;;4.70;;
12846;SDS011;6492;48.128;8.320;2023-02-16T03:54:00;10.63;;;5.83;;
12846;SDS011;6492;48.128;8.320;2023-02-16T03:58:02;7.27;;;4.60;;
12846;SDS011;6492;48.128;8.320;2023-02-16T04:02:04;6.57;;;4.27;;
12846;SDS011;6492;48.128;8.320;2023-02-16T04:06:06;6.80;;;4.50;;
12846;SDS011;6492;48.128;8.320;2023-02-16T04:10:10;7.57;;;4.50;;
12846;SDS011;6492;48.128;8.320;2023-02-16T04:14:11;8.20;;;4.40;;
12846;SDS011;6492;48.128;8.320;2023-02-16T04:18:13;5.97;;;3.90;;
12846;SDS011;6492;48.128;8.320;2023-02-16T04:22:15;5.00;;;3.63;;
12846;SDS011;6492;48.128;8.320;2023-02-16T04:26:18;5.83;;;4.10;;
12846;SDS011;6492;48.128;8.320;2023-02-16T04:30:21;6.40;;;4.30;;
12846;SDS011;6492;48.128;8.320;2023-02-16T04:34:24;5.80;;;3.87;;
12846;SDS011;6492;48.128;8.320;2023-02-16T04:38:26;5.63;;;4.10;;
12846;SDS011;6492;48.128;8.320;2023-02-16T04:42:29;6.63;;;4.17;;
12846;SDS011;6492;48.128;8.320;2023-02-16T04:46:31;5.33;;;4.27;;
12846;SDS011;6492;48.128;8.320;2023-02-16T04:50:33;4.97;;;3.53;;
12846;SDS011;6492;48.128;8.320;2023-02-16T04:54:34;5.67;;;4.10;;
12846;SDS011;6492;48.128;8.320;2023-02-16T04:58:37;7.23;;;4.20;;
12846;SDS011;6492;48.128;8.320;2023-02-16T05:02:39;6.20;;;3.97;;
12846;SDS011;6492;48.128;8.320;2023-02-16T05:06:41;7.60;;;4.33;;
12846;SDS011;6492;48.128;8.320;2023-02-16T05:10:43;7.00;;;4.50;;
12846;SDS011;6492;48.128;8.320;2023-02-16T05:15:07;6.47;;;4.33;;
12846;SDS011;6492;48.128;8.320;2023-02-16T05:19:09;6.17;;;4.00;;
12846;SDS011;6492;48.128;8.320;2023-02-16T05:23:11;5.37;;;3.70;;
12846;SDS011;6492;48.128;8.320;2023-02-16T05:27:16;8.10;;;4.10;;
12846;SDS011;6492;48.128;8.320;2023-02-16T05:31:20;5.73;;;3.80;;
12846;SDS011;6492;48.128;8.320;2023-02-16T05:39:33;5.43;;;3.90;;
12846;SDS011;6492;48.128;8.320;2023-02-16T05:43:35;6.60;;;3.63;;
12846;SDS011;6492;48.128;8.320;2023-02-16T05:51:46;5.47;;;4.23;;
12846;SDS011;6492;48.128;8.320;2023-02-16T05:55:48;5.77;;;4.20;;
12846;SDS011;6492;48.128;8.320;2023-02-16T05:59:49;8.53;;;4.07;;
12846;SDS011;6492;48.128;8.320;2023-02-16T06:03:52;6.07;;;3.67;;
12846;SDS011;6492;48.128;8.320;2023-02-16T06:07:54;7.43;;;4.03;;
12846;SDS011;6492;48.128;8.320;2023-02-16T06:11:56;6.13;;;3.70;;
12846;SDS011;6492;48.128;8.320;2023-02-16T06:15:58;5.80;;;3.63;;
12846;SDS011;6492;48.128;8.320;2023-02-16T06:20:01;7.03;;;4.17;;
12846;SDS011;6492;48.128;8.320;2023-02-16T06:24:04;5.17;;;4.07;;
12846;SDS011;6492;48.128;8.320;2023-02-16T06:28:06;5.83;;;4.00;;
12846;SDS011;6492;48.128;8.320;2023-02-16T06:32:08;5.20;;;3.80;;
12846;SDS011;6492;48.128;8.320;2023-02-16T06:36:11;5.67;;;4.10;;
12846;SDS011;6492;48.128;8.320;2023-02-16T06:40:14;6.03;;;4.20;;
12846;SDS011;6492;48.128;8.320;2023-02-16T06:44:17;7.37;;;4.03;;
12846;SDS011;6492;48.128;8.320;2023-02-16T06:48:19;4.60;;;3.40;;
12846;SDS011;6492;48.128;8.320;2023-02-16T06:52:22;8.93;;;3.53;;
12846;SDS011;6492;48.128;8.320;2023-02-16T06:56:32;7.27;;;4.40;;
12846;SDS011;6492;48.128;8.320;2023-02-16T07:00:34;6.30;;;3.60;;
12846;SDS011;6492;48.128;8.320;2023-02-16T07:04:35;6.33;;;3.77;;
12846;SDS011;6492;48.128;8.320;2023-02-16T07:08:38;5.47;;;3.93;;
12846;SDS011;6492;48.128;8.320;2023-02-16T07:12:40;7.20;;;3.70;;
12846;SDS011;6492;48.128;8.320;2023-02-16T07:16:42;6.03;;;3.93;;
12846;SDS011;6492;48.128;8.320;2023-02-16T07:20:44;4.60;;;3.33;;
12846;SDS011;6492;48.128;8.320;2023-02-16T07:24:47;6.33;;;3.63;;
12846;SDS011;6492;48.128;8.320;2023-02-16T07:28:49;4.70;;;3.73;;
12846;SDS011;6492;48.128;8.320;2023-02-16T07:32:51;5.40;;;3.80;;
12846;SDS011;6492;48.128;8.320;2023-02-16T07:36:53;6.40;;;4.13;;
12846;SDS011;6492;48.128;8.320;2023-02-16T07:40:56;6.80;;;4.50;;
12846;SDS011;6492;48.128;8.320;2023-02-16T07:44:58;6.30;;;4.53;;
12846;SDS011;6492;48.128;8.320;2023-02-16T07:49:00;6.00;;;4.10;;
12846;SDS011;6492;48.128;8.320;2023-02-16T07:53:02;5.17;;;3.70;;
12846;SDS011;6492;48.128;8.320;2023-02-16T07:57:05;3.60;;;3.23;;
12846;SDS011;6492;48.128;8.320;2023-02-16T08:01:08;4.83;;;3.40;;
12846;SDS011;6492;48.128;8.320;2023-02-16T08:05:11;6.43;;;3.17;;
12846;SDS011;6492;48.128;8.320;2023-02-16T08:09:12;5.53;;;3.90;;
12846;SDS011;6492;48.128;8.320;2023-02-16T08:13:16;4.17;;;3.30;;
12846;SDS011;6492;48.128;8.320;2023-02-16T08:17:17;7.33;;;3.80;;
12846;SDS011;6492;48.128;8.320;2023-02-16T08:21:20;5.60;;;3.40;;
12846;SDS011;6492;48.128;8.320;2023-02-16T08:25:23;4.47;;;3.27;;
12846;SDS011;6492;48.128;8.320;2023-02-16T08:29:27;4.00;;;3.10;;
12846;SDS011;6492;48.128;8.320;2023-02-16T08:33:29;4.20;;;3.30;;
12846;SDS011;6492;48.128;8.320;2023-02-16T08:37:36;6.47;;;3.60;;
12846;SDS011;6492;48.128;8.320;2023-02-16T08:41:38;5.40;;;3.20;;
12846;SDS011;6492;48.128;8.320;2023-02-16T08:45:43;6.93;;;3.30;;
12846;SDS011;6492;48.128;8.320;2023-02-16T08:49:46;4.97;;;3.20;;
12846;SDS011;6492;48.128;8.320;2023-02-16T08:53:48;4.10;;;3.10;;
12846;SDS011;6492;48.128;8.320;2023-02-16T08:57:52;6.40;;;3.50;;
12846;SDS011;6492;48.128;8.320;2023-02-16T09:01:55;5.13;;;2.87;;
12846;SDS011;6492;48.128;8.320;2023-02-16T09:05:59;7.13;;;3.20;;
12846;SDS011;6492;48.128;8.320;2023-02-16T09:10:02;4.63;;;2.70;;
12846;SDS011;6492;48.128;8.320;2023-02-16T09:14:05;4.00;;;2.70;;
12846;SDS011;6492;48.128;8.320;2023-02-16T09:18:09;7.83;;;5.40;;
12846;SDS011;6492;48.128;8.320;2023-02-16T09:22:11;4.67;;;3.00;;
12846;SDS011;6492;48.128;8.320;2023-02-16T09:26:14;5.63;;;3.30;;
12846;SDS011;6492;48.128;8.320;2023-02-16T09:30:17;4.07;;;3.07;;
12846;SDS011;6492;48.128;8.320;2023-02-16T09:34:21;5.07;;;3.10;;
12846;SDS011;6492;48.128;8.320;2023-02-16T09:38:23;4.77;;;2.80;;
12846;SDS011;6492;48.128;8.320;2023-02-16T09:42:28;4.90;;;2.77;;
12846;SDS011;6492;48.128;8.320;2023-02-16T09:46:46;4.97;;;2.70;;
12846;SDS011;6492;48.128;8.320;2023-02-16T09:50:51;4.37;;;2.70;;
12846;SDS011;6492;48.128;8.320;2023-02-16T09:54:55;4.17;;;3.03;;
12846;SDS011;6492;48.128;8.320;2023-02-16T09:59:00;5.97;;;2.97;;
12846;SDS011;6492;48.128;8.320;2023-02-16T10:03:08;4.07;;;2.87;;
12846;SDS011;6492;48.128;8.320;2023-02-16T10:07:23;5.90;;;3.17;;
12846;SDS011;6492;48.128;8.320;2023-02-16T10:11:31;4.00;;;3.10;;
12846;SDS011;6492;48.128;8.320;2023-02-16T10:15:41;4.90;;;2.73;;
12846;SDS011;6492;48.128;8.320;2023-02-16T10:19:45;3.17;;;2.73;;
12846;SDS011;6492;48.128;8.320;2023-02-16T10:23:55;3.93;;;2.77;;
12846;SDS011;6492;48.128;8.320;2023-02-16T10:28:03;3.80;;;2.57;;
12846;SDS011;6492;48.128;8.320;2023-02-16T10:32:14;4.23;;;2.80;;
12846;SDS011;6492;48.128;8.320;2023-02-16T10:36:25;3.40;;;2.57;;
12846;SDS011;6492;48.128;8.320;2023-02-16T10:40:39;4.00;;;2.77;;
12846;SDS011;6492;48.128;8.320;2023-02-16T10:44:47;3.87;;;2.80;;
12846;SDS011;6492;48.128;8.320;2023-02-16T10:48:56;3.30;;;2.50;;
12846;SDS011;6492;48.128;8.320;2023-02-16T10:53:03;3.57;;;2.60;;
12846;SDS011;6492;48.128;8.320;2023-02-16T10:57:16;4.10;;;2.80;;
12846;SDS011;6492;48.128;8.320;2023-02-16T11:01:38;4.40;;;2.70;;
12846;SDS011;6492;48.128;8.320;2023-02-16T11:05:44;3.10;;;2.70;;
12846;SDS011;6492;48.128;8.320;2023-02-16T11:09:46;4.80;;;2.67;;
12846;SDS011;6492;48.128;8.320;2023-02-16T11:13:57;2.60;;;2.40;;
12846;SDS011;6492;48.128;8.320;2023-02-16T11:18:02;4.20;;;2.77;;
12846;SDS011;6492;48.128;8.320;2023-02-16T11:22:10;3.57;;;2.60;;
12846;SDS011;6492;48.128;8.320;2023-02-16T11:26:30;3.27;;;2.77;;
12846;SDS011;6492;48.128;8.320;2023-02-16T11:30:34;4.03;;;2.50;;
12846;SDS011;6492;48.128;8.320;2023-02-16T11:34:38;3.23;;;2.40;;
12846;SDS011;6492;48.128;8.320;2023-02-16T11:38:42;6.23;;;2.67;;
12846;SDS011;6492;48.128;8.320;2023-02-16T11:42:57;3.00;;;2.50;;
12846;SDS011;6492;48.128;8.320;2023-02-16T11:47:03;2.83;;;2.60;;
12846;SDS011;6492;48.128;8.320;2023-02-16T11:51:09;3.40;;;2.40;;
12846;SDS011;6492;48.128;8.320;2023-02-16T11:55:22;3.13;;;2.43;;
12846;SDS011;6492;48.128;8.320;2023-02-16T11:59:26;3.20;;;2.50;;
12846;SDS011;6492;48.128;8.320;2023-02-16T12:03:51;4.33;;;2.57;;
12846;SDS011;6492;48.128;8.320;2023-02-16T12:08:16;2.40;;;2.20;;
12846;SDS011;6492;48.128;8.320;2023-02-16T12:12:30;3.40;;;2.60;;
12846;SDS011;6492;48.128;8.320;2023-02-16T12:16:39;5.07;;;2.50;;
12846;SDS011;6492;48.128;8.320;2023-02-16T12:20:56;3.70;;;2.93;;
12846;SDS011;6492;48.128;8.320;2023-02-16T12:25:04;4.37;;;2.87;;
12846;SDS011;6492;48.128;8.320;2023-02-16T12:29:31;3.73;;;3.03;;
12846;SDS011;6492;48.128;8.320;2023-02-16T12:33:46;5.03;;;2.70;;
12846;SDS011;6492;48.128;8.320;2023-02-16T12:37:58;3.83;;;2.60;;
12846;SDS011;6492;48.128;8.320;2023-02-16T12:42:11;4.30;;;2.63;;
12846;SDS011;6492;48.128;8.320;2023-02-16T12:46:31;5.83;;;2.73;;
12846;SDS011;6492;48.128;8.320;2023-02-16T12:50:38;4.17;;;2.97;;
12846;SDS011;6492;48.128;8.320;2023-02-16T12:54:46;5.23;;;3.23;;
12846;SDS011;6492;48.128;8.320;2023-02-16T12:58:54;7.63;;;4.37;;
12846;SDS011;6492;48.128;8.320;2023-02-16T13:03:10;5.10;;;4.00;;
12846;SDS011;6492;48.128;8.320;2023-02-16T13:07:25;4.03;;;3.20;;
12846;SDS011;6492;48.128;8.320;2023-02-16T13:11:33;5.13;;;3.40;;
12846;SDS011;6492;48.128;8.320;2023-02-16T13:15:41;5.50;;;3.17;;
12846;SDS011;6492;48.128;8.320;2023-02-16T13:19:47;6.57;;;3.20;;
12846;SDS011;6492;48.128;8.320;2023-02-16T13:23:53;4.50;;;2.77;;
12846;SDS011;6492;48.128;8.320;2023-02-16T13:28:08;4.00;;;2.83;;
12846;SDS011;6492;48.128;8.320;2023-02-16T13:32:25;4.87;;;3.50;;
12846;SDS011;6492;48.128;8.320;2023-02-16T13:36:53;5.67;;;3.83;;
12846;SDS011;6492;48.128;8.320;2023-02-16T13:41:22;5.73;;;3.00;;
12846;SDS011;6492;48.128;8.320;2023-02-16T13:45:42;3.07;;;2.63;;
12846;SDS011;6492;48.128;8.320;2023-02-16T13:49:45;5.10;;;3.30;;
12846;SDS011;6492;48.128;8.320;2023-02-16T13:53:54;2.67;;;2.43;;
12846;SDS011;6492;48.128;8.320;2023-02-16T13:58:03;4.00;;;2.73;;
12846;SDS011;6492;48.128;8.320;2023-02-16T14:02:11;3.77;;;2.77;;
12846;SDS011;6492;48.128;8.320;2023-02-16T14:06:33;9.33;;;5.40;;
12846;SDS011;6492;48.128;8.320;2023-02-16T14:15:15;4.50;;;2.67;;
12846;SDS011;6492;48.128;8.320;2023-02-16T14:19:21;4.20;;;3.10;;
12846;SDS011;6492;48.128;8.320;2023-02-16T14:23:25;11.07;;;7.50;;
12846;SDS011;6492;48.128;8.320;2023-02-16T14:27:43;10.70;;;7.03;;
12846;SDS011;6492;48.128;8.320;2023-02-16T14:31:49;8.97;;;5.73;;
12846;SDS011;6492;48.128;8.320;2023-02-16T14:36:10;7.50;;;5.60;;
12846;SDS011;6492;48.128;8.320;2023-02-16T14:40:16;3.93;;;2.90;;
12846;SDS011;6492;48.128;8.320;2023-02-16T14:44:24;3.37;;;2.50;;
12846;SDS011;6492;48.128;8.320;2023-02-16T14:48:49;3.73;;;2.60;;
12846;SDS011;6492;48.128;8.320;2023-02-16T14:53:34;3.87;;;3.00;;
12846;SDS011;6492;48.128;8.320;2023-02-16T14:57:59;3.27;;;2.10;;
12846;SDS011;6492;48.128;8.320;2023-02-16T15:06:29;3.80;;;2.40;;
12846;SDS011;6492;48.128;8.320;2023-02-16T15:10:36;7.60;;;3.20;;
12846;SDS011;6492;48.128;8.320;2023-02-16T15:14:40;4.20;;;2.50;;
12846;SDS011;6492;48.128;8.320;2023-02-16T15:18:45;3.83;;;2.87;;
12846;SDS011;6492;48.128;8.320;2023-02-16T15:22:49;4.07;;;3.20;;
12846;SDS011;6492;48.128;8.320;2023-02-16T15:27:00;4.93;;;3.57;;
12846;SDS011;6492;48.128;8.320;2023-02-16T15:31:03;6.80;;;3.77;;
12846;SDS011;6492;48.128;8.320;2023-02-16T15:35:10;4.90;;;2.90;;
12846;SDS011;6492;48.128;8.320;2023-02-16T15:39:24;4.77;;;3.43;;
12846;SDS011;6492;48.128;8.320;2023-02-16T15:43:31;3.90;;;2.97;;
12846;SDS011;6492;48.128;8.320;2023-02-16T15:47:36;5.07;;;3.10;;
12846;SDS011;6492;48.128;8.320;2023-02-16T15:51:39;7.20;;;4.20;;
12846;SDS011;6492;48.128;8.320;2023-02-16T15:55:42;8.03;;;5.40;;
12846;SDS011;6492;48.128;8.320;2023-02-16T15:59:47;12.07;;;6.70;;
12846;SDS011;6492;48.128;8.320;2023-02-16T16:03:52;10.50;;;7.20;;
12846;SDS011;6492;48.128;8.320;2023-02-16T16:07:53;14.93;;;8.63;;
12846;SDS011;6492;48.128;8.320;2023-02-16T16:11:57;5.57;;;3.80;;
12846;SDS011;6492;48.128;8.320;2023-02-16T16:16:03;5.70;;;3.23;;
12846;SDS011;6492;48.128;8.320;2023-02-16T16:20:24;4.03;;;3.30;;
12846;SDS011;6492;48.128;8.320;2023-02-16T16:24:28;5.00;;;3.27;;
12846;SDS011;6492;48.128;8.320;2023-02-16T16:28:34;5.57;;;3.63;;
12846;SDS011;6492;48.128;8.320;2023-02-16T16:32:38;4.80;;;3.30;;
12846;SDS011;6492;48.128;8.320;2023-02-16T16:36:42;3.63;;;3.20;;
12846;SDS011;6492;48.128;8.320;2023-02-16T16:40:48;5.83;;;3.40;;
12846;SDS011;6492;48.128;8.320;2023-02-16T16:45:02;3.73;;;3.33;;
12846;SDS011;6492;48.128;8.320;2023-02-16T16:49:11;5.20;;;3.60;;
12846;SDS011;6492;48.128;8.320;2023-02-16T16:57:54;4.43;;;3.40;;
12846;SDS011;6492;48.128;8.320;2023-02-16T17:02:04;4.93;;;3.60;;
12846;SDS011;6492;48.128;8.320;2023-02-16T17:06:07;4.20;;;3.30;;
12846;SDS011;6492;48.128;8.320;2023-02-16T17:10:10;5.10;;;3.47;;
12846;SDS011;6492;48.128;8.320;2023-02-16T17:14:26;4.97;;;3.90;;
12846;SDS011;6492;48.128;8.320;2023-02-16T17:18:30;6.10;;;4.17;;
12846;SDS011;6492;48.128;8.320;2023-02-16T17:22:33;6.10;;;3.60;;
12846;SDS011;6492;48.128;8.320;2023-02-16T17:26:36;4.40;;;3.37;;
12846;SDS011;6492;48.128;8.320;2023-02-16T17:30:42;6.13;;;3.57;;
12846;SDS011;6492;48.128;8.320;2023-02-16T17:34:44;5.07;;;3.50;;
12846;SDS011;6492;48.128;8.320;2023-02-16T17:38:47;4.80;;;3.50;;
12846;SDS011;6492;48.128;8.320;2023-02-16T17:42:49;4.83;;;3.40;;
12846;SDS011;6492;48.128;8.320;2023-02-16T17:46:57;4.93;;;3.53;;
12846;SDS011;6492;48.128;8.320;2023-02-16T17:50:59;8.97;;;3.87;;
12846;SDS011;6492;48.128;8.320;2023-02-16T17:55:02;8.07;;;4.57;;
12846;SDS011;6492;48.128;8.320;2023-02-16T17:59:11;7.60;;;3.90;;
12846;SDS011;6492;48.128;8.320;2023-02-16T18:03:14;7.50;;;4.13;;
12846;SDS011;6492;48.128;8.320;2023-02-16T18:07:17;4.77;;;3.70;;
12846;SDS011;6492;48.128;8.320;2023-02-16T18:11:20;5.17;;;3.57;;
12846;SDS011;6492;48.128;8.320;2023-02-16T18:15:22;6.53;;;3.47;;
12846;SDS011;6492;48.128;8.320;2023-02-16T18:19:24;5.10;;;2.87;;
12846;SDS011;6492;48.128;8.320;2023-02-16T18:23:26;4.70;;;3.07;;
12846;SDS011;6492;48.128;8.320;2023-02-16T18:27:29;3.63;;;2.70;;
12846;SDS011;6492;48.128;8.320;2023-02-16T18:31:31;3.80;;;3.00;;
12846;SDS011;6492;48.128;8.320;2023-02-16T18:35:36;3.60;;;2.83;;
12846;SDS011;6492;48.128;8.320;2023-02-16T18:39:43;3.30;;;3.00;;
12846;SDS011;6492;48.128;8.320;2023-02-16T18:43:53;6.70;;;2.90;;
12846;SDS011;6492;48.128;8.320;2023-02-16T18:47:54;5.90;;;3.27;;
12846;SDS011;6492;48.128;8.320;2023-02-16T18:51:57;4.83;;;3.23;;
12846;SDS011;6492;48.128;8.320;2023-02-16T18:56:13;4.10;;;2.93;;
12846;SDS011;6492;48.128;8.320;2023-02-16T19:00:17;3.90;;;2.90;;
12846;SDS011;6492;48.128;8.320;2023-02-16T19:04:20;4.43;;;3.07;;
12846;SDS011;6492;48.128;8.320;2023-02-16T19:08:22;6.57;;;3.30;;
12846;SDS011;6492;48.128;8.320;2023-02-16T19:12:26;4.03;;;3.57;;
12846;SDS011;6492;48.128;8.320;2023-02-16T19:16:29;5.13;;;3.27;;
12846;SDS011;6492;48.128;8.320;2023-02-16T19:20:34;5.20;;;2.87;;
12846;SDS011;6492;48.128;8.320;2023-02-16T19:24:35;5.93;;;3.37;;
12846;SDS011;6492;48.128;8.320;2023-02-16T19:28:37;3.73;;;3.17;;
12846;SDS011;6492;48.128;8.320;2023-02-16T19:32:43;3.73;;;2.83;;
12846;SDS011;6492;48.128;8.320;2023-02-16T19:36:44;5.03;;;3.10;;
12846;SDS011;6492;48.128;8.320;2023-02-16T19:40:49;4.27;;;3.23;;
12846;SDS011;6492;48.128;8.320;2023-02-16T19:44:50;5.20;;;3.23;;
12846;SDS011;6492;48.128;8.320;2023-02-16T19:48:54;4.30;;;3.00;;
12846;SDS011;6492;48.128;8.320;2023-02-16T19:52:56;6.07;;;3.23;;
12846;SDS011;6492;48.128;8.320;2023-02-16T20:01:05;4.40;;;3.30;;
12846;SDS011;6492;48.128;8.320;2023-02-16T20:05:09;5.03;;;3.10;;
12846;SDS011;6492;48.128;8.320;2023-02-16T20:09:11;5.57;;;3.23;;
12846;SDS011;6492;48.128;8.320;2023-02-16T20:13:14;4.47;;;3.10;;
12846;SDS011;6492;48.128;8.320;2023-02-16T20:17:16;3.53;;;3.07;;
12846;SDS011;6492;48.128;8.320;2023-02-16T20:21:19;4.23;;;3.10;;
12846;SDS011;6492;48.128;8.320;2023-02-16T20:25:22;4.90;;;3.13;;
12846;SDS011;6492;48.128;8.320;2023-02-16T20:29:24;4.40;;;2.87;;
12846;SDS011;6492;48.128;8.320;2023-02-16T20:33:26;5.00;;;2.90;;
12846;SDS011;6492;48.128;8.320;2023-02-16T20:37:29;4.33;;;2.93;;
12846;SDS011;6492;48.128;8.320;2023-02-16T20:41:31;4.43;;;2.90;;
12846;SDS011;6492;48.128;8.320;2023-02-16T20:45:39;3.97;;;2.90;;
12846;SDS011;6492;48.128;8.320;2023-02-16T20:49:42;4.80;;;3.10;;
12846;SDS011;6492;48.128;8.320;2023-02-16T20:53:45;4.63;;;2.83;;
12846;SDS011;6492;48.128;8.320;2023-02-16T20:57:49;4.53;;;3.27;;
12846;SDS011;6492;48.128;8.320;2023-02-16T21:01:51;5.10;;;3.30;;
12846;SDS011;6492;48.128;8.320;2023-02-16T21:05:53;4.77;;;3.43;;
12846;SDS011;6492;48.128;8.320;2023-02-16T21:09:58;5.27;;;3.00;;
12846;SDS011;6492;48.128;8.320;2023-02-16T21:14:00;5.07;;;3.00;;
12846;SDS011;6492;48.128;8.320;2023-02-16T21:18:02;5.20;;;3.10;;
12846;SDS011;6492;48.128;8.320;2023-02-16T21:22:04;4.90;;;3.10;;
12846;SDS011;6492;48.128;8.320;2023-02-16T21:26:08;5.63;;;3.10;;
12846;SDS011;6492;48.128;8.320;2023-02-16T21:30:10;4.30;;;3.10;;
12846;SDS011;6492;48.128;8.320;2023-02-16T21:34:12;6.60;;;3.47;;
12846;SDS011;6492;48.128;8.320;2023-02-16T21:38:22;4.57;;;2.70;;
12846;SDS011;6492;48.128;8.320;2023-02-16T21:42:25;3.93;;;2.90;;
12846;SDS011;6492;48.128;8.320;2023-02-16T21:46:28;5.10;;;2.80;;
12846;SDS011;6492;48.128;8.320;2023-02-16T21:50:32;3.17;;;2.67;;
12846;SDS011;6492;48.128;8.320;2023-02-16T21:54:36;2.73;;;2.50;;
12846;SDS011;6492;48.128;8.320;2023-02-16T21:58:57;5.67;;;2.93;;
12846;SDS011;6492;48.128;8.320;2023-02-16T22:02:59;6.00;;;2.97;;
12846;SDS011;6492;48.128;8.320;2023-02-16T22:07:01;3.77;;;3.00;;
12846;SDS011;6492;48.128;8.320;2023-02-16T22:11:03;5.47;;;3.10;;
12846;SDS011;6492;48.128;8.320;2023-02-16T22:15:08;4.77;;;3.20;;
12846;SDS011;6492;48.128;8.320;2023-02-16T22:19:10;3.70;;;3.17;;
12846;SDS011;6492;48.128;8.320;2023-02-16T22:23:13;5.17;;;3.30;;
12846;SDS011;6492;48.128;8.320;2023-02-16T22:27:15;5.83;;;3.10;;
12846;SDS011;6492;48.128;8.320;2023-02-16T22:31:18;5.37;;;3.40;;
12846;SDS011;6492;48.128;8.320;2023-02-16T22:35:21;4.57;;;3.07;;
12846;SDS011;6492;48.128;8.320;2023-02-16T22:39:23;4.97;;;3.13;;
12846;SDS011;6492;48.128;8.320;2023-02-16T22:43:25;6.30;;;3.20;;
12846;SDS011;6492;48.128;8.320;2023-02-16T22:47:29;6.57;;;3.73;;
12846;SDS011;6492;48.128;8.320;2023-02-16T22:51:31;7.57;;;4.10;;
12846;SDS011;6492;48.128;8.320;2023-02-16T22:55:34;6.23;;;3.93;;
12846;SDS011;6492;48.128;8.320;2023-02-16T22:59:42;5.37;;;3.30;;
12846;SDS011;6492;48.128;8.320;2023-02-16T23:03:46;6.50;;;4.00;;
12846;SDS011;6492;48.128;8.320;2023-02-16T23:07:48;5.80;;;3.77;;
12846;SDS011;6492;48.128;8.320;2023-02-16T23:11:50;5.57;;;3.87;;
12846;SDS011;6492;48.128;8.320;2023-02-16T23:15:52;5.20;;;3.80;;
12846;SDS011;6492;48.128;8.320;2023-02-16T23:19:57;5.93;;;4.13;;
12846;SDS011;6492;48.128;8.320;2023-02-16T23:23:59;5.73;;;3.77;;
12846;SDS011;6492;48.128;8.320;2023-02-16T23:28:01;5.27;;;3.77;;
12846;SDS011;6492;48.128;8.320;2023-02-16T23:32:04;6.80;;;3.43;;
12846;SDS011;6492;48.128;8.320;2023-02-16T23:36:08;7.27;;;3.77;;
12846;SDS011;6492;48.128;8.320;2023-02-16T23:40:10;4.83;;;3.20;;
12846;SDS011;6492;48.128;8.320;2023-02-16T23:44:13;6.10;;;3.53;;
12846;SDS011;6492;48.128;8.320;2023-02-16T23:48:15;7.77;;;4.23;;
12846;SDS011;6492;48.128;8.320;2023-02-16T23:52:19;6.33;;;3.90;;
12846;SDS011;6492;48.128;8.320;2023-02-16T23:56:22;5.13;;;3.80;;
